createdAt,value
2023-05-01T00:00:05.308Z,12.5
2023-05-01T00:16:00.006Z,12.44
2023-05-01T00:31:00.711Z,12.33
2023-05-01T00:46:01.909Z,12.33
2023-05-01T01:00:02.770Z,12.22
2023-05-01T01:16:03.543Z,12.11
2023-05-01T01:31:04.465Z,12
2023-05-01T01:46:00.183Z,12
2023-05-01T02:00:01.296Z,11.94
2023-05-01T02:16:02.317Z,11.89
2023-05-01T02:31:02.998Z,11.83
2023-05-01T02:46:03.913Z,11.83
2023-05-01T02:59:59.623Z,11.78
2023-05-01T03:16:00.409Z,11.67
2023-05-01T03:31:01.735Z,11.56
2023-05-01T03:46:02.800Z,11.39
2023-05-01T04:00:03.487Z,11.28
2023-05-01T04:15:59.701Z,11.17
2023-05-01T04:31:00.874Z,11.11
2023-05-01T04:46:01.732Z,11.22
2023-05-01T05:00:02.535Z,11.22
2023-05-01T05:16:03.396Z,11.22
2023-05-01T05:31:04.251Z,11.44
2023-05-01T05:45:59.782Z,11.44
2023-05-01T06:00:00.328Z,11.5
2023-05-01T06:16:01.461Z,12.11
2023-05-01T06:31:02.317Z,13
2023-05-01T06:46:03.414Z,13.33
2023-05-01T07:00:04.309Z,13.83
2023-05-01T07:16:00.289Z,13.33
2023-05-01T07:31:01.258Z,13.5
2023-05-01T07:46:02.174Z,14
2023-05-01T08:00:03.025Z,14.44
2023-05-01T08:16:04.018Z,15.22
2023-05-01T08:31:00.160Z,15.44
2023-05-01T08:46:00.886Z,15.44
2023-05-01T09:00:01.603Z,15.83
2023-05-01T09:16:02.657Z,15.94
2023-05-01T09:31:03.653Z,15.5
2023-05-01T09:46:04.615Z,15.72
2023-05-01T10:00:00.464Z,15.72
2023-05-01T10:16:01.211Z,15.33
2023-05-01T10:31:02.023Z,15.56
2023-05-01T10:46:03.114Z,15.78
2023-05-01T11:00:04.165Z,16.33
2023-05-01T11:15:59.995Z,16.28
2023-05-01T11:31:01.238Z,16.56
2023-05-01T11:46:02.845Z,16.33
2023-05-01T12:00:03.074Z,16.5
2023-05-01T12:16:02.799Z,16.94
2023-05-01T12:30:59.974Z,17.56
2023-05-01T12:46:00.696Z,17.33
2023-05-01T13:00:01.631Z,17.61
2023-05-01T13:16:02.182Z,17.72
2023-05-01T13:31:02.906Z,17.78
2023-05-01T13:46:03.802Z,18.11
2023-05-01T14:00:04.405Z,17.61
2023-05-01T14:16:00.382Z,17.56
2023-05-01T14:31:01.397Z,17.5
2023-05-01T14:46:02.213Z,17
2023-05-01T15:00:02.988Z,16.89
2023-05-01T15:16:04.100Z,16.56
2023-05-01T15:30:59.882Z,16.44
2023-05-01T15:46:00.668Z,16.44
2023-05-01T16:00:01.751Z,16.28
2023-05-01T16:16:02.546Z,15.94
2023-05-01T16:31:08.346Z,15.72
2023-05-01T16:46:04.403Z,15.56
2023-05-01T17:00:00.700Z,15.33
2023-05-01T17:16:01.672Z,15.22
2023-05-01T17:31:02.431Z,14.78
2023-05-01T17:46:03.518Z,14.28
2023-05-01T18:00:04.361Z,13.72
2023-05-01T18:15:59.789Z,13.28
2023-05-01T18:31:01.015Z,12.94
2023-05-01T18:46:01.911Z,12.67
2023-05-01T19:00:02.760Z,12.44
2023-05-01T19:16:03.956Z,12.22
2023-05-01T19:30:59.800Z,12
2023-05-01T19:46:00.861Z,11.78
2023-05-01T20:00:01.680Z,11.67
2023-05-01T20:16:04.790Z,11.5
2023-05-01T20:31:03.629Z,11.39
2023-05-01T20:46:04.707Z,11.28
2023-05-01T21:00:00.308Z,11.17
2023-05-01T21:16:01.182Z,11.11
2023-05-01T21:31:01.766Z,11
2023-05-01T21:46:02.769Z,11
2023-05-01T22:00:03.480Z,10.94
2023-05-01T22:16:04.246Z,10.89
2023-05-01T22:31:00.202Z,10.83
2023-05-01T22:46:00.943Z,10.83
2023-05-01T23:00:02.030Z,10.83
2023-05-01T23:16:02.424Z,10.78
2023-05-01T23:31:03.280Z,10.78
2023-05-01T23:46:04.162Z,10.78
